createdAt,value
2019-01-29T00:02:23.153Z,99471.42
2019-01-29T00:04:51.612Z,99464.06
2019-01-29T00:07:20.120Z,99473.13
2019-01-29T00:09:48.584Z,99479.54
2019-01-29T00:12:17.038Z,99470.45
2019-01-29T00:14:46.577Z,99478.41
2019-01-29T00:17:15.031Z,99490.01
2019-01-29T00:19:43.476Z,99499.34
2019-01-29T00:22:11.957Z,99499.34
2019-01-29T00:24:40.406Z,99499.40
2019-01-29T00:27:08.859Z,99499.40
2019-01-29T00:29:37.417Z,99505.63
2019-01-29T00:32:05.868Z,99507.89
2019-01-29T00:34:34.334Z,99507.69
2019-01-29T00:37:02.815Z,99514.33
2019-01-29T00:39:31.263Z,99521.87
2019-01-29T00:41:59.711Z,99524.25
2019-01-29T00:44:28.211Z,99528.81
2019-01-29T00:46:56.660Z,99526.13
2019-01-29T00:49:25.111Z,99531.16
2019-01-29T00:51:53.611Z,99530.25
2019-01-29T00:54:22.061Z,99531.48
2019-01-29T00:56:50.519Z,99531.88
2019-01-29T00:59:19.009Z,99531.88
2019-01-29T01:01:47.459Z,99541.28
2019-01-29T01:04:15.911Z,99554.50
2019-01-29T01:06:44.414Z,99554.50
2019-01-29T01:09:12.873Z,99560.91
2019-01-29T01:11:41.325Z,99560.91
2019-01-29T01:14:09.808Z,99564.31
2019-01-29T01:16:38.382Z,99566.02
2019-01-29T01:19:06.900Z,99575.84
2019-01-29T01:21:35.399Z,99572.36
2019-01-29T01:24:03.844Z,99576.62
2019-01-29T01:26:32.292Z,99579.54
2019-01-29T01:29:00.794Z,99595.26
2019-01-29T01:31:29.252Z,99596.46
2019-01-29T01:33:57.697Z,99607.06
2019-01-29T01:36:26.211Z,99609.59
2019-01-29T01:38:54.650Z,99611.23
2019-01-29T01:41:23.092Z,99608.62
2019-01-29T01:43:51.582Z,99609.09
2019-01-29T01:46:20.030Z,99610.77
2019-01-29T01:48:48.505Z,99609.45
2019-01-29T01:51:16.995Z,99619.22
2019-01-29T01:53:45.438Z,99619.19
2019-01-29T01:56:13.898Z,99631.98
2019-01-29T01:58:42.421Z,99626.87
2019-01-29T02:01:10.955Z,99634.98
2019-01-29T02:03:39.456Z,99636.63
2019-01-29T02:06:07.945Z,99642.16
2019-01-29T02:08:36.394Z,99644.72
2019-01-29T02:11:04.931Z,99646.42
2019-01-29T02:13:33.418Z,99646.75
2019-01-29T02:16:01.856Z,99650.89
2019-01-29T02:18:31.190Z,99654.22
2019-01-29T02:20:59.679Z,99659.20
2019-01-29T02:23:28.130Z,99665.09
2019-01-29T02:25:56.591Z,99676.45
2019-01-29T02:28:25.087Z,99670.45
2019-01-29T02:30:53.613Z,99679.28
2019-01-29T02:33:24.975Z,99681.74
2019-01-29T02:35:52.293Z,99685.55
2019-01-29T02:38:20.749Z,99692.30
2019-01-29T02:40:49.203Z,99693.88
2019-01-29T02:43:17.688Z,99691.73
2019-01-29T02:45:46.131Z,99698.48
2019-01-29T02:48:14.577Z,99701.02
2019-01-29T02:50:43.094Z,99711.63
2019-01-29T02:53:18.119Z,99703.86
2019-01-29T02:55:41.761Z,99708.05
2019-01-29T02:58:10.302Z,99718.25
2019-01-29T03:00:38.743Z,99717.32
2019-01-29T03:03:07.195Z,99725.34
2019-01-29T03:05:35.677Z,99720.13
2019-01-29T03:08:04.192Z,99729.44
2019-01-29T03:10:32.639Z,99736.14
2019-01-29T03:13:01.123Z,99740.75
2019-01-29T03:15:31.411Z,99743.17
2019-01-29T03:17:59.943Z,99748.19
2019-01-29T03:20:28.734Z,99746.40
2019-01-29T03:22:57.247Z,99761.70
2019-01-29T03:25:25.772Z,99763.74
2019-01-29T03:27:54.241Z,99773.48
2019-01-29T03:30:23.360Z,99775.94
2019-01-29T03:32:51.806Z,99780.98
2019-01-29T03:35:20.345Z,99789.89
2019-01-29T03:37:48.861Z,99788.48
2019-01-29T03:40:22.871Z,99786.30
2019-01-29T03:42:51.414Z,99789.63
2019-01-29T03:45:19.866Z,99792.11
2019-01-29T03:47:48.384Z,99795.87
2019-01-29T03:50:18.936Z,99797.88
2019-01-29T03:52:47.467Z,99795.59
2019-01-29T03:55:15.998Z,99798.12
2019-01-29T03:57:44.550Z,99804.40
2019-01-29T04:00:16.180Z,99804.68
2019-01-29T04:02:44.639Z,99813.09
2019-01-29T04:05:13.200Z,99807.12
2019-01-29T04:07:41.655Z,99812.65
2019-01-29T04:10:15.751Z,99815.58
2019-01-29T04:12:44.318Z,99826.70
2019-01-29T04:15:15.306Z,99827.14
2019-01-29T04:17:43.830Z,99828.84
2019-01-29T04:20:15.174Z,99802.73
2019-01-29T04:22:45.998Z,99831.42
2019-01-29T04:25:14.762Z,99832.78
2019-01-29T04:27:43.317Z,99837.47
2019-01-29T04:30:16.827Z,99839.65
2019-01-29T04:32:45.353Z,99845.20
2019-01-29T04:35:13.926Z,99846.94
2019-01-29T04:37:42.367Z,99853.32
2019-01-29T04:40:13.572Z,99850.38
2019-01-29T04:42:42.049Z,99854.67
2019-01-29T04:45:13.134Z,99858.50
2019-01-29T04:47:41.664Z,99861.92
2019-01-29T04:50:15.488Z,99855.95
2019-01-29T04:52:43.952Z,99874.24
2019-01-29T04:55:17.201Z,99867.37
2019-01-29T04:57:45.759Z,99874.59
2019-01-29T05:00:19.225Z,99868.12
2019-01-29T05:02:47.729Z,99879.24
2019-01-29T05:05:16.937Z,99878.83
2019-01-29T05:07:45.555Z,99877.48
2019-01-29T05:10:16.871Z,99878.76
2019-01-29T05:12:45.429Z,99883.00
2019-01-29T05:15:15.904Z,99887.25
2019-01-29T05:17:44.366Z,99888.91
2019-01-29T05:20:18.182Z,99896.56
2019-01-29T05:22:46.631Z,99894.39
2019-01-29T05:25:16.125Z,99897.21
2019-01-29T05:27:44.767Z,99901.34
2019-01-29T05:30:21.257Z,99900.70
2019-01-29T05:32:49.840Z,99910.33
2019-01-29T05:35:18.296Z,99910.48
2019-01-29T05:37:46.747Z,99914.53
2019-01-29T05:40:17.593Z,99914.34
2019-01-29T05:42:46.051Z,99919.67
2019-01-29T05:45:17.116Z,99916.55
2019-01-29T05:47:45.598Z,99923.60
2019-01-29T05:50:15.574Z,99924.64
2019-01-29T05:52:44.026Z,99924.91
2019-01-29T05:55:14.263Z,99931.05
2019-01-29T05:57:42.774Z,99936.41
2019-01-29T06:00:27.453Z,99942.20
2019-01-29T06:02:55.908Z,99942.95
2019-01-29T06:05:24.523Z,99953.41
2019-01-29T06:07:52.999Z,99949.80
2019-01-29T06:10:21.455Z,99957.73
2019-01-29T06:12:49.957Z,99957.61
2019-01-29T06:15:23.301Z,99967.28
2019-01-29T06:17:51.829Z,99967.94
2019-01-29T06:20:22.623Z,99980.16
2019-01-29T06:22:51.165Z,99979.21
2019-01-29T06:25:19.706Z,99981.69
2019-01-29T06:27:48.561Z,99990.97
2019-01-29T06:30:21.956Z,99987.48
2019-01-29T06:32:50.469Z,99993.64
2019-01-29T06:35:19.497Z,100001.62
2019-01-29T06:37:47.992Z,100003.50
2019-01-29T06:40:27.056Z,100009.25
2019-01-29T06:42:55.556Z,100008.26
2019-01-29T06:45:25.749Z,100005.91
2019-01-29T06:47:54.653Z,100014.70
2019-01-29T06:50:25.507Z,100016.53
2019-01-29T06:52:54.099Z,100030.09
2019-01-29T06:55:23.789Z,100033.84
2019-01-29T06:57:55.664Z,100041.56
2019-01-29T07:00:27.998Z,100040.29
2019-01-29T07:02:56.833Z,100041.24
2019-01-29T07:05:25.299Z,100048.94
2019-01-29T07:07:53.770Z,100051.11
2019-01-29T07:10:23.818Z,100051.48
2019-01-29T07:12:52.350Z,100055.72
2019-01-29T07:15:41.340Z,100057.72
2019-01-29T07:18:11.506Z,100068.24
2019-01-29T07:20:40.044Z,100071.14
2019-01-29T07:23:08.558Z,100071.52
2019-01-29T07:25:37.029Z,100075.75
2019-01-29T07:28:05.717Z,100073.70
2019-01-29T07:30:34.366Z,100079.11
2019-01-29T07:33:02.925Z,100080.71
2019-01-29T07:35:31.472Z,100078.03
2019-01-29T07:37:59.971Z,100075.71
2019-01-29T07:40:28.510Z,100093.50
2019-01-29T07:42:56.957Z,100090.31
2019-01-29T07:45:25.795Z,100090.64
2019-01-29T07:47:54.334Z,100102.37
2019-01-29T07:50:23.203Z,100103.56
2019-01-29T07:52:51.711Z,100102.69
2019-01-29T07:55:20.247Z,100101.42
2019-01-29T07:57:48.796Z,100110.80
2019-01-29T08:00:17.927Z,100110.88
2019-01-29T08:02:46.577Z,100107.61
2019-01-29T08:05:15.055Z,100114.98
2019-01-29T08:07:43.615Z,100110.84
2019-01-29T08:10:18.149Z,100112.98
2019-01-29T08:12:46.704Z,100114.75
2019-01-29T08:15:20.213Z,100111.80
2019-01-29T08:17:48.826Z,100115.76
2019-01-29T08:20:18.213Z,100122.62
2019-01-29T08:22:46.698Z,100118.84
2019-01-29T08:25:15.700Z,100130.45
2019-01-29T08:27:44.146Z,100126.63
2019-01-29T08:30:15.143Z,100130.22
2019-01-29T08:32:43.723Z,100141.83
2019-01-29T08:35:14.136Z,100142.46
2019-01-29T08:37:42.633Z,100140.52
2019-01-29T08:40:15.439Z,100142.88
2019-01-29T08:42:43.903Z,100151.16
2019-01-29T08:45:15.539Z,100155.34
2019-01-29T08:47:44.002Z,100150.60
2019-01-29T08:50:26.649Z,100152.18
2019-01-29T08:52:55.180Z,100158.91
2019-01-29T08:55:23.646Z,100162.27
2019-01-29T08:57:52.145Z,100156.66
2019-01-29T09:00:24.050Z,100161.37
2019-01-29T09:02:52.661Z,100164.75
2019-01-29T09:05:21.137Z,100168.11
2019-01-29T09:07:49.670Z,100167.17
2019-01-29T09:10:20.644Z,100168.45
2019-01-29T09:12:49.228Z,100166.69
2019-01-29T09:15:22.802Z,100160.14
2019-01-29T09:17:51.275Z,100159.52
2019-01-29T09:20:21.499Z,100162.33
2019-01-29T09:22:50.181Z,100158.57
2019-01-29T09:25:22.560Z,100157.34
2019-01-29T09:27:48.875Z,100156.14
2019-01-29T09:30:19.072Z,100163.88
2019-01-29T09:32:47.877Z,100166.97
2019-01-29T09:35:16.384Z,100162.81
2019-01-29T09:37:44.836Z,100165.90
2019-01-29T09:40:19.084Z,100172.33
2019-01-29T09:42:47.673Z,100175.83
2019-01-29T09:45:18.156Z,100182.67
2019-01-29T09:47:48.716Z,100178.05
2019-01-29T09:50:19.763Z,100178.51
2019-01-29T09:52:49.498Z,100171.70
2019-01-29T09:55:29.067Z,100176.97
2019-01-29T09:57:50.638Z,100176.61
2019-01-29T10:00:28.008Z,100175.86
2019-01-29T10:02:56.594Z,100181.59
2019-01-29T10:05:25.219Z,100178.62
2019-01-29T10:07:53.680Z,100189.00
2019-01-29T10:10:22.193Z,100186.56
2019-01-29T10:12:50.668Z,100186.34
2019-01-29T10:15:36.234Z,100183.98
2019-01-29T10:18:05.474Z,100182.41
2019-01-29T10:20:34.096Z,100186.03
2019-01-29T10:23:02.581Z,100188.38
2019-01-29T10:25:37.464Z,100186.08
2019-01-29T10:28:01.228Z,100193.13
2019-01-29T10:30:29.731Z,100187.98
2019-01-29T10:32:58.532Z,100196.41
2019-01-29T10:35:28.823Z,100194.23
2019-01-29T10:37:57.312Z,100193.36
2019-01-29T10:40:27.312Z,100195.05
2019-01-29T10:42:57.401Z,100192.78
2019-01-29T10:45:30.184Z,100188.89
2019-01-29T10:47:58.716Z,100193.83
2019-01-29T10:50:29.328Z,100193.83
2019-01-29T10:52:57.891Z,100195.87
2019-01-29T10:55:26.420Z,100193.52
2019-01-29T10:57:54.890Z,100192.23
2019-01-29T11:00:26.490Z,100192.23
2019-01-29T11:02:55.028Z,100195.00
2019-01-29T11:05:23.636Z,100193.48
2019-01-29T11:07:52.133Z,100187.86
2019-01-29T11:10:21.330Z,100185.12
2019-01-29T11:12:49.956Z,100185.12
2019-01-29T11:15:26.944Z,100192.97
2019-01-29T11:17:55.581Z,100190.41
2019-01-29T11:20:24.425Z,100203.14
2019-01-29T11:22:53.066Z,100203.14
2019-01-29T11:25:24.328Z,100195.45
2019-01-29T11:27:52.854Z,100202.66
2019-01-29T11:30:26.697Z,100199.20
2019-01-29T11:32:55.394Z,100193.59
2019-01-29T11:35:23.995Z,100193.59
2019-01-29T11:37:52.563Z,100194.70
2019-01-29T11:40:26.374Z,100198.41
2019-01-29T11:42:54.845Z,100185.71
2019-01-29T11:45:37.995Z,100205.20
2019-01-29T11:48:06.541Z,100205.20
2019-01-29T11:50:35.055Z,100203.16
2019-01-29T11:53:03.622Z,100201.59
2019-01-29T11:55:32.154Z,100209.83
2019-01-29T11:58:00.613Z,100206.50
2019-01-29T12:00:39.794Z,100207.19
2019-01-29T12:03:08.334Z,100209.63
2019-01-29T12:05:36.861Z,100206.74
2019-01-29T12:08:06.487Z,100206.74
2019-01-29T12:10:35.075Z,100210.84
2019-01-29T12:13:04.397Z,100210.84
2019-01-29T12:15:32.888Z,100207.09
2019-01-29T12:18:01.347Z,100200.75
2019-01-29T12:20:29.826Z,100209.88
2019-01-29T12:22:58.376Z,100206.06
2019-01-29T12:25:26.839Z,100214.59
2019-01-29T12:27:55.373Z,100214.44
2019-01-29T12:30:28.882Z,100214.44
2019-01-29T12:32:58.875Z,100216.30
2019-01-29T12:35:27.337Z,100219.05
2019-01-29T12:37:56.039Z,100217.77
2019-01-29T12:40:24.513Z,100217.77
2019-01-29T12:42:52.985Z,100217.09
2019-01-29T12:45:21.558Z,100215.88
2019-01-29T12:47:50.168Z,100219.81
2019-01-29T12:50:30.638Z,100215.61
2019-01-29T12:53:04.011Z,100214.27
2019-01-29T12:55:32.542Z,100217.25
2019-01-29T12:58:01.032Z,100216.73
2019-01-29T13:00:37.064Z,100217.00
2019-01-29T13:03:06.379Z,100226.39
2019-01-29T13:05:34.836Z,100225.38
2019-01-29T13:08:03.354Z,100221.69
2019-01-29T13:10:31.866Z,100228.99
2019-01-29T13:13:00.388Z,100228.99
2019-01-29T13:15:30.613Z,100218.55
2019-01-29T13:18:00.612Z,100222.03
2019-01-29T13:20:29.070Z,100224.80
2019-01-29T13:22:57.666Z,100219.80
2019-01-29T13:25:26.473Z,100219.80
2019-01-29T13:27:54.950Z,100221.20
2019-01-29T13:30:31.139Z,100221.77
2019-01-29T13:32:59.800Z,100221.77
2019-01-29T13:35:30.910Z,100212.86
2019-01-29T13:37:59.428Z,100214.14
2019-01-29T13:40:28.805Z,100210.30
2019-01-29T13:42:57.255Z,100212.28
2019-01-29T13:45:25.776Z,100212.28
2019-01-29T13:47:54.279Z,100223.22
2019-01-29T13:50:31.792Z,100223.22
2019-01-29T13:53:00.293Z,100212.73
2019-01-29T13:55:28.741Z,100219.37
2019-01-29T13:57:57.213Z,100216.45
2019-01-29T14:00:28.608Z,100216.38
2019-01-29T14:02:57.062Z,100216.38
2019-01-29T14:05:25.607Z,100216.23
2019-01-29T14:07:54.143Z,100217.51
2019-01-29T14:10:23.097Z,100222.28
2019-01-29T14:12:51.568Z,100223.48
2019-01-29T14:15:32.374Z,100218.19
2019-01-29T14:18:00.832Z,100218.63
2019-01-29T14:20:29.275Z,100219.83
2019-01-29T14:22:57.791Z,100222.80
2019-01-29T14:25:26.234Z,100222.80
2019-01-29T14:27:54.701Z,100225.30
2019-01-29T14:30:28.298Z,100226.66
2019-01-29T14:32:56.765Z,100226.66
2019-01-29T14:35:25.234Z,100229.64
2019-01-29T14:37:59.978Z,100233.42
2019-01-29T14:40:29.288Z,100233.42
2019-01-29T14:42:58.413Z,100228.26
2019-01-29T14:45:31.053Z,100228.45
2019-01-29T14:47:59.506Z,100237.52
2019-01-29T14:50:28.336Z,100237.52
2019-01-29T14:52:56.821Z,100232.33
2019-01-29T14:55:25.817Z,100231.05
2019-01-29T14:57:54.267Z,100228.99
2019-01-29T15:00:33.841Z,100228.99
2019-01-29T15:03:02.291Z,100228.09
2019-01-29T15:05:30.822Z,100228.09
2019-01-29T15:07:59.396Z,100222.80
2019-01-29T15:10:31.962Z,100230.91
2019-01-29T15:13:00.565Z,100230.91
2019-01-29T15:15:35.875Z,100223.73
2019-01-29T15:18:15.372Z,100228.21
2019-01-29T15:20:43.856Z,100232.66
2019-01-29T15:23:12.347Z,100234.84
2019-01-29T15:25:40.824Z,100235.86
2019-01-29T15:28:09.566Z,100237.22
2019-01-29T15:30:38.106Z,100238.63
2019-01-29T15:33:06.736Z,100233.64
2019-01-29T15:35:36.811Z,100241.09
2019-01-29T15:38:05.502Z,100237.59
2019-01-29T15:40:34.061Z,100237.06
2019-01-29T15:43:02.586Z,100239.59
2019-01-29T15:45:33.337Z,100232.18
2019-01-29T15:48:01.803Z,100240.63
2019-01-29T15:50:32.334Z,100240.63
2019-01-29T15:53:00.935Z,100228.34
2019-01-29T15:55:29.465Z,100228.34
2019-01-29T15:57:58.010Z,100234.47
2019-01-29T16:00:33.606Z,100229.34
2019-01-29T16:03:02.144Z,100235.85
2019-01-29T16:05:33.321Z,100244.89
2019-01-29T16:08:01.925Z,100244.89
2019-01-29T16:10:39.415Z,100245.34
2019-01-29T16:13:03.781Z,100248.02
2019-01-29T16:15:32.645Z,100248.02
2019-01-29T16:18:01.111Z,100254.52
2019-01-29T16:20:29.589Z,100256.22
2019-01-29T16:22:58.050Z,100257.22
2019-01-29T16:25:31.474Z,100264.08
2019-01-29T16:27:59.985Z,100261.63
2019-01-29T16:30:32.853Z,100261.63
2019-01-29T16:33:01.948Z,100260.00
2019-01-29T16:35:32.281Z,100256.50
2019-01-29T16:38:00.727Z,100256.50
2019-01-29T16:40:34.985Z,100260.34
2019-01-29T16:43:03.479Z,100262.87
2019-01-29T16:45:33.592Z,100262.87
2019-01-29T16:48:03.256Z,100261.06
2019-01-29T16:50:31.826Z,100266.72
2019-01-29T16:53:00.517Z,100272.29
2019-01-29T16:55:29.032Z,100271.94
2019-01-29T16:57:57.542Z,100271.49
2019-01-29T17:00:32.741Z,100271.49
2019-01-29T17:03:01.699Z,100267.65
2019-01-29T17:05:30.802Z,100274.58
2019-01-29T17:08:00.894Z,100275.03
2019-01-29T17:10:32.014Z,100277.66
2019-01-29T17:13:00.482Z,100282.37
2019-01-29T17:15:34.444Z,100278.53
2019-01-29T17:18:03.100Z,100278.53
2019-01-29T17:20:34.188Z,100275.44
2019-01-29T17:23:03.234Z,100269.86
2019-01-29T17:25:31.721Z,100269.86
2019-01-29T17:28:00.190Z,100274.22
2019-01-29T17:30:39.711Z,100271.55
2019-01-29T17:33:08.783Z,100275.09
2019-01-29T17:35:38.984Z,100269.97
2019-01-29T17:38:07.552Z,100272.59
2019-01-29T17:40:36.026Z,100276.44
2019-01-29T17:43:04.821Z,100266.53
2019-01-29T17:45:38.875Z,100270.03
2019-01-29T17:48:07.562Z,100267.47
2019-01-29T17:50:39.396Z,100268.27
2019-01-29T17:53:08.014Z,100266.98
2019-01-29T17:55:38.112Z,100265.70
2019-01-29T17:58:07.348Z,100265.67
2019-01-29T18:00:37.552Z,100260.47
2019-01-29T18:03:06.830Z,100259.54
2019-01-29T18:05:35.349Z,100260.78
2019-01-29T18:08:04.025Z,100260.78
2019-01-29T18:10:33.157Z,100262.93
2019-01-29T18:13:01.586Z,100259.09
2019-01-29T18:15:31.136Z,100253.89
2019-01-29T18:17:59.588Z,100260.78
2019-01-29T18:20:28.114Z,100260.78
2019-01-29T18:22:56.682Z,100259.50
2019-01-29T18:25:25.140Z,100262.93
2019-01-29T18:28:01.007Z,100262.86
2019-01-29T18:30:32.031Z,100261.16
2019-01-29T18:33:00.597Z,100259.02
2019-01-29T18:35:29.059Z,100261.99
2019-01-29T18:37:57.587Z,100261.99
2019-01-29T18:40:37.790Z,100262.45
2019-01-29T18:43:06.555Z,100259.84
2019-01-29T18:45:35.007Z,100259.43
2019-01-29T18:48:03.466Z,100264.48
2019-01-29T18:50:31.966Z,100264.48
2019-01-29T18:53:00.604Z,100258.91
2019-01-29T18:55:29.062Z,100265.73
2019-01-29T18:57:57.542Z,100267.12
2019-01-29T19:00:26.673Z,100261.05
2019-01-29T19:02:55.121Z,100268.05
2019-01-29T19:05:25.630Z,100266.77
2019-01-29T19:07:54.091Z,100266.77
2019-01-29T19:10:22.612Z,100264.66
2019-01-29T19:12:51.247Z,100268.09
2019-01-29T19:15:22.213Z,100246.34
2019-01-29T19:17:50.841Z,100265.14
2019-01-29T19:20:21.387Z,100279.77
2019-01-29T19:22:49.850Z,100279.77
2019-01-29T19:25:18.310Z,100270.27
2019-01-29T19:27:46.803Z,100278.17
2019-01-29T19:30:29.871Z,100278.17
2019-01-29T19:32:58.399Z,100275.61
2019-01-29T19:35:26.994Z,100276.96
2019-01-29T19:37:55.464Z,100273.98
2019-01-29T19:40:24.231Z,100272.18
2019-01-29T19:42:52.691Z,100275.68
2019-01-29T19:45:26.490Z,100280.80
2019-01-29T19:47:56.066Z,100277.30
2019-01-29T19:50:29.908Z,100276.78
2019-01-29T19:52:59.258Z,100284.58
2019-01-29T19:55:28.169Z,100284.16
2019-01-29T19:57:56.727Z,100281.98
2019-01-29T20:00:30.893Z,100281.22
2019-01-29T20:02:59.463Z,100287.21
2019-01-29T20:05:27.913Z,100287.21
2019-01-29T20:07:56.535Z,100288.14
2019-01-29T20:10:25.044Z,100288.14
2019-01-29T20:12:53.556Z,100291.50
2019-01-29T20:15:24.357Z,100294.06
2019-01-29T20:17:54.190Z,100292.16
2019-01-29T20:20:25.295Z,100292.16
2019-01-29T20:22:53.838Z,100292.57
2019-01-29T20:25:22.332Z,100292.09
2019-01-29T20:27:53.102Z,100289.00
2019-01-29T20:30:23.603Z,100289.00
2019-01-29T20:32:53.447Z,100286.02
2019-01-29T20:35:22.302Z,100292.91
2019-01-29T20:37:50.824Z,100292.91
2019-01-29T20:40:21.575Z,100279.92
2019-01-29T20:42:50.036Z,100279.92
2019-01-29T20:45:18.562Z,100288.55
2019-01-29T20:47:47.423Z,100283.31
2019-01-29T20:50:19.041Z,100288.48
2019-01-29T20:52:47.508Z,100288.48
2019-01-29T20:55:16.069Z,100293.26
2019-01-29T20:57:44.750Z,100285.12
2019-01-29T21:00:16.630Z,100283.02
2019-01-29T21:02:45.135Z,100277.30
2019-01-29T21:05:13.758Z,100280.80
2019-01-29T21:07:42.304Z,100275.56
2019-01-29T21:10:18.860Z,100275.56
2019-01-29T21:12:47.324Z,100281.96
2019-01-29T21:15:17.531Z,100278.98
2019-01-29T21:17:46.104Z,100281.55
2019-01-29T21:20:16.821Z,100274.69
2019-01-29T21:22:45.363Z,100274.73
2019-01-29T21:25:14.540Z,100278.19
2019-01-29T21:27:43.047Z,100277.78
2019-01-29T21:30:17.449Z,100270.96
2019-01-29T21:32:46.068Z,100270.20
2019-01-29T21:35:14.525Z,100269.34
2019-01-29T21:37:43.002Z,100269.34
2019-01-29T21:40:13.802Z,100269.75
2019-01-29T21:42:42.290Z,100272.69
2019-01-29T21:45:16.313Z,100273.52
2019-01-29T21:47:44.938Z,100269.50
2019-01-29T21:50:19.374Z,100272.41
2019-01-29T21:52:47.930Z,100273.64
2019-01-29T21:55:17.024Z,100280.47
2019-01-29T21:57:45.551Z,100278.25
2019-01-29T22:00:20.305Z,100278.25
2019-01-29T22:02:48.764Z,100275.20
2019-01-29T22:05:17.286Z,100275.20
2019-01-29T22:07:45.773Z,100269.52
2019-01-29T22:10:17.865Z,100267.71
2019-01-29T22:12:46.402Z,100271.41
2019-01-29T22:15:20.469Z,100271.25
2019-01-29T22:17:49.007Z,100269.38
2019-01-29T22:20:19.314Z,100267.12
2019-01-29T22:22:47.817Z,100275.25
2019-01-29T22:25:21.141Z,100268.78
2019-01-29T22:27:49.654Z,100277.36
2019-01-29T22:30:24.111Z,100268.33
2019-01-29T22:32:52.567Z,100267.46
2019-01-29T22:35:21.109Z,100266.59
2019-01-29T22:37:49.619Z,100260.98
2019-01-29T22:40:22.794Z,100263.09
2019-01-29T22:42:51.254Z,100270.36
2019-01-29T22:45:19.754Z,100264.30
2019-01-29T22:47:48.297Z,100264.26
2019-01-29T22:50:19.319Z,100261.22
2019-01-29T22:52:47.814Z,100256.51
2019-01-29T22:55:16.352Z,100253.08
2019-01-29T22:57:44.820Z,100246.20
2019-01-29T23:00:18.136Z,100243.59
2019-01-29T23:02:47.645Z,100247.89
2019-01-29T23:05:16.089Z,100246.16
2019-01-29T23:07:44.586Z,100243.52
2019-01-29T23:10:16.054Z,100246.50
2019-01-29T23:12:44.517Z,100238.18
2019-01-29T23:15:15.973Z,100238.18
2019-01-29T23:17:44.452Z,100238.62
2019-01-29T23:20:15.658Z,100239.91
2019-01-29T23:22:44.178Z,100237.28
2019-01-29T23:25:12.724Z,100234.72
2019-01-29T23:27:41.260Z,100230.87
2019-01-29T23:30:16.342Z,100235.20
2019-01-29T23:32:44.878Z,100234.34
2019-01-29T23:35:13.494Z,100234.72
2019-01-29T23:37:41.998Z,100231.78
2019-01-29T23:40:15.210Z,100230.09
2019-01-29T23:42:43.676Z,100233.92
2019-01-29T23:45:13.910Z,100228.39
2019-01-29T23:47:42.431Z,100228.39
2019-01-29T23:50:13.418Z,100220.30
2019-01-29T23:52:41.929Z,100218.16
2019-01-29T23:55:11.241Z,100215.90
2019-01-29T23:57:39.711Z,100215.83
